createdAt,value
2022-10-31T00:02:22.604Z,11.95
2022-10-31T00:04:48.996Z,9.20
2022-10-31T00:07:15.252Z,8.07
2022-10-31T00:09:41.502Z,13.07
2022-10-31T00:12:07.751Z,9.95
2022-10-31T00:14:34.065Z,10.60
2022-10-31T00:17:00.335Z,9.20
2022-10-31T00:19:26.854Z,7.20
2022-10-31T00:21:53.344Z,9.18
2022-10-31T00:24:19.635Z,8.20
2022-10-31T00:26:45.933Z,8.98
2022-10-31T00:29:13.697Z,11.73
2022-10-31T00:31:39.951Z,9.15
2022-10-31T00:34:06.303Z,8.73
2022-10-31T00:36:32.581Z,6.75
2022-10-31T00:38:59.403Z,9.15
2022-10-31T00:41:25.734Z,8.80
2022-10-31T00:43:52.269Z,8.20
2022-10-31T00:46:18.597Z,9.63
2022-10-31T00:48:44.846Z,6.95
2022-10-31T00:51:11.584Z,13.18
2022-10-31T00:53:37.866Z,6.82
2022-10-31T00:56:04.527Z,9.13
2022-10-31T00:58:30.905Z,7.55
2022-10-31T01:00:57.459Z,6.93
2022-10-31T01:03:28.188Z,8.48
2022-10-31T01:05:58.170Z,5.72
2022-10-31T01:08:24.624Z,6.28
2022-10-31T01:11:06.815Z,10.43
2022-10-31T01:13:33.407Z,8.43
2022-10-31T01:16:00.409Z,8.98
2022-10-31T01:18:27.882Z,8.45
2022-10-31T01:21:00.190Z,12.82
2022-10-31T01:23:26.466Z,6.97
2022-10-31T01:25:59.856Z,7.32
2022-10-31T01:31:02.631Z,6.78
2022-10-31T01:33:28.932Z,7.53
2022-10-31T01:35:55.212Z,6.68
2022-10-31T01:38:22.057Z,10.23
2022-10-31T01:40:48.318Z,8.40
2022-10-31T01:43:15.162Z,8.10
2022-10-31T01:45:46.877Z,10.90
2022-10-31T01:48:16.409Z,8.77
2022-10-31T01:50:44.365Z,14.48
2022-10-31T01:53:11.322Z,9.23
2022-10-31T01:55:40.809Z,10.18
2022-10-31T01:58:09.281Z,9.75
2022-10-31T02:00:35.649Z,12.13
2022-10-31T02:03:02.461Z,10.95
2022-10-31T02:05:30.431Z,9.88
2022-10-31T02:08:02.974Z,18.27
2022-10-31T02:10:30.059Z,11.52
2022-10-31T02:12:58.631Z,12.60
2022-10-31T02:15:25.412Z,11.57
2022-10-31T02:17:52.295Z,11.70
2022-10-31T02:20:20.263Z,9.38
2022-10-31T02:23:05.518Z,12.80
2022-10-31T02:25:50.474Z,12.55
2022-10-31T02:28:37.012Z,12.13
2022-10-31T02:31:16.842Z,7.05
2022-10-31T02:33:58.605Z,16.33
2022-10-31T02:36:28.916Z,10.00
2022-10-31T02:38:58.246Z,10.93
2022-10-31T02:41:43.138Z,12.57
2022-10-31T02:44:28.252Z,10.87
2022-10-31T02:46:58.330Z,12.07
2022-10-31T02:49:24.605Z,9.13
2022-10-31T02:51:51.339Z,12.35
2022-10-31T02:54:22.568Z,13.18
2022-10-31T02:56:49.896Z,13.18
2022-10-31T02:59:16.600Z,12.75
2022-10-31T03:01:49.361Z,10.77
2022-10-31T03:04:18.689Z,10.68
2022-10-31T03:06:44.953Z,14.70
2022-10-31T03:09:11.180Z,14.55
2022-10-31T03:11:42.991Z,15.80
2022-10-31T03:14:24.684Z,14.68
2022-10-31T03:16:52.523Z,11.93
2022-10-31T03:19:23.792Z,14.07
2022-10-31T03:21:58.720Z,10.15
2022-10-31T03:24:28.333Z,13.68
2022-10-31T03:26:55.684Z,16.77
2022-10-31T03:29:24.576Z,10.73
2022-10-31T03:31:54.605Z,13.43
2022-10-31T03:34:21.451Z,17.27
2022-10-31T03:36:50.317Z,14.85
2022-10-31T03:39:18.183Z,16.10
2022-10-31T03:41:47.827Z,16.88
2022-10-31T03:44:16.374Z,13.40
2022-10-31T03:46:43.035Z,12.65
2022-10-31T03:49:09.474Z,14.77
2022-10-31T03:51:40.692Z,15.02
2022-10-31T03:54:14.675Z,13.45
2022-10-31T03:56:42.778Z,12.23
2022-10-31T03:59:13.099Z,14.95
2022-10-31T04:01:41.365Z,12.40
2022-10-31T04:04:07.847Z,12.43
2022-10-31T04:06:35.621Z,12.52
2022-10-31T04:09:04.138Z,19.65
2022-10-31T04:11:32.817Z,12.77
2022-10-31T04:14:00.715Z,10.63
2022-10-31T04:16:27.429Z,13.25
2022-10-31T04:18:53.869Z,14.02
2022-10-31T04:21:20.116Z,17.35
2022-10-31T04:23:46.366Z,14.80
2022-10-31T04:26:12.872Z,14.77
2022-10-31T04:28:39.181Z,16.00
2022-10-31T04:31:06.198Z,14.27
2022-10-31T04:33:32.426Z,13.65
2022-10-31T04:35:58.745Z,18.90
2022-10-31T04:38:24.991Z,13.32
2022-10-31T04:40:51.253Z,14.27
2022-10-31T04:43:17.567Z,15.25
2022-10-31T04:45:43.871Z,16.02
2022-10-31T04:48:10.117Z,18.67
2022-10-31T04:50:36.364Z,12.27
2022-10-31T04:53:02.650Z,13.27
2022-10-31T04:55:28.906Z,13.23
2022-10-31T04:57:55.251Z,13.13
2022-10-31T05:00:22.698Z,15.15
2022-10-31T05:02:52.876Z,15.98
2022-10-31T05:05:20.272Z,14.85
2022-10-31T05:07:47.450Z,13.35
2022-10-31T05:10:24.262Z,14.02
2022-10-31T05:13:01.377Z,13.30
2022-10-31T05:15:28.720Z,15.50
2022-10-31T05:17:55.364Z,13.27
2022-10-31T05:20:22.745Z,10.85
2022-10-31T05:22:50.086Z,11.25
2022-10-31T05:25:16.791Z,12.93
2022-10-31T05:27:44.448Z,12.23
2022-10-31T05:30:11.789Z,12.35
2022-10-31T05:32:41.856Z,11.57
2022-10-31T05:35:11.902Z,15.82
2022-10-31T05:37:38.512Z,11.10
2022-10-31T05:40:08.107Z,12.75
2022-10-31T05:42:34.979Z,13.45
2022-10-31T05:45:01.267Z,12.48
2022-10-31T05:47:27.721Z,12.15
2022-10-31T05:49:54.049Z,11.32
2022-10-31T05:52:20.587Z,17.83
2022-10-31T05:54:46.866Z,13.80
2022-10-31T05:57:13.120Z,20.25
2022-10-31T05:59:39.410Z,17.58
2022-10-31T06:02:05.664Z,16.35
2022-10-31T06:04:31.976Z,16.17
2022-10-31T06:06:58.476Z,19.02
2022-10-31T06:09:24.789Z,18.85
2022-10-31T06:11:51.215Z,19.15
2022-10-31T06:14:17.451Z,15.43
2022-10-31T06:16:43.764Z,17.58
2022-10-31T06:19:10.113Z,22.15
2022-10-31T06:21:36.368Z,18.83
2022-10-31T06:24:02.671Z,20.40
2022-10-31T06:26:29.102Z,21.98
2022-10-31T06:28:57.727Z,14.45
2022-10-31T06:31:26.185Z,14.90
2022-10-31T06:33:52.437Z,16.27
2022-10-31T06:36:18.727Z,19.42
2022-10-31T06:38:45.034Z,16.92
2022-10-31T06:41:11.273Z,17.27
2022-10-31T06:43:37.574Z,17.95
2022-10-31T06:46:04.418Z,15.57
2022-10-31T06:48:30.712Z,18.00
2022-10-31T06:51:00.706Z,18.10
2022-10-31T06:53:27.525Z,21.10
2022-10-31T06:55:53.773Z,18.10
2022-10-31T06:58:20.071Z,20.50
2022-10-31T07:00:46.386Z,17.15
2022-10-31T07:03:13.485Z,16.38
2022-10-31T07:05:39.799Z,15.45
2022-10-31T07:08:08.012Z,21.25
2022-10-31T07:10:39.144Z,13.10
2022-10-31T07:13:07.777Z,13.05
2022-10-31T07:15:35.063Z,13.10
2022-10-31T07:18:05.238Z,14.07
2022-10-31T07:20:32.180Z,11.07
2022-10-31T07:22:58.916Z,15.75
2022-10-31T07:25:25.325Z,9.90
2022-10-31T07:27:51.604Z,13.50
2022-10-31T07:30:19.159Z,13.90
2022-10-31T07:32:46.416Z,13.95
2022-10-31T07:35:14.005Z,15.88
2022-10-31T07:37:40.311Z,12.98
2022-10-31T07:40:07.349Z,14.10
2022-10-31T07:42:52.512Z,17.75
2022-10-31T07:45:20.179Z,18.88
2022-10-31T07:47:47.551Z,16.75
2022-10-31T07:50:34.715Z,16.13
2022-10-31T07:53:01.245Z,17.50
2022-10-31T07:55:28.467Z,15.52
2022-10-31T07:57:58.871Z,16.30
2022-10-31T08:00:25.517Z,15.43
2022-10-31T08:02:59.403Z,17.30
2022-10-31T08:05:26.015Z,14.80
2022-10-31T08:07:52.458Z,18.80
2022-10-31T08:10:18.778Z,17.55
2022-10-31T08:12:45.081Z,15.65
2022-10-31T08:15:11.381Z,16.40
2022-10-31T08:17:38.224Z,16.58
2022-10-31T08:20:05.268Z,17.58
2022-10-31T08:22:31.807Z,18.05
2022-10-31T08:24:58.511Z,18.38
2022-10-31T08:27:24.787Z,15.90
2022-10-31T08:29:51.459Z,18.23
2022-10-31T08:32:17.744Z,20.65
2022-10-31T08:34:44.023Z,16.25
2022-10-31T08:37:10.275Z,18.58
2022-10-31T08:39:36.546Z,17.25
2022-10-31T08:42:02.932Z,21.65
2022-10-31T08:44:29.208Z,18.67
2022-10-31T08:46:55.477Z,16.77
2022-10-31T08:49:22.384Z,19.73
2022-10-31T08:51:49.122Z,22.05
2022-10-31T08:54:15.380Z,20.10
2022-10-31T08:56:41.631Z,18.70
2022-10-31T08:59:07.886Z,21.95
2022-10-31T09:01:34.255Z,22.65
2022-10-31T09:04:00.610Z,22.60
2022-10-31T09:06:27.047Z,23.02
2022-10-31T09:08:53.484Z,23.90
2022-10-31T09:11:19.747Z,23.48
2022-10-31T09:13:46.006Z,21.90
2022-10-31T09:16:12.254Z,21.60
2022-10-31T09:18:38.541Z,19.48
2022-10-31T09:21:05.146Z,21.50
2022-10-31T09:23:31.500Z,28.02
2022-10-31T09:25:59.876Z,22.02
2022-10-31T09:28:26.177Z,20.52
2022-10-31T09:30:53.518Z,23.42
2022-10-31T09:33:20.564Z,21.73
2022-10-31T09:35:46.876Z,24.38
2022-10-31T09:38:17.118Z,22.73
2022-10-31T09:41:03.637Z,22.13
2022-10-31T09:43:45.013Z,24.48
2022-10-31T09:46:34.384Z,22.67
2022-10-31T09:49:19.313Z,21.90
2022-10-31T09:51:52.765Z,22.13
2022-10-31T09:54:21.536Z,24.10
2022-10-31T09:56:48.148Z,23.00
2022-10-31T09:59:20.072Z,22.15
2022-10-31T10:01:56.101Z,24.77
2022-10-31T10:04:34.484Z,29.55
2022-10-31T10:07:03.694Z,26.83
2022-10-31T10:09:30.124Z,24.85
2022-10-31T10:12:08.760Z,37.58
2022-10-31T10:14:35.022Z,25.13
2022-10-31T10:17:13.141Z,27.60
2022-10-31T10:19:48.594Z,27.33
2022-10-31T10:24:50.489Z,28.83
2022-10-31T10:27:29.298Z,32.92
2022-10-31T10:29:59.080Z,27.65
2022-10-31T10:32:29.588Z,29.05
2022-10-31T10:34:58.628Z,31.35
2022-10-31T10:37:31.507Z,34.22
2022-10-31T10:40:02.749Z,28.58
2022-10-31T10:42:47.712Z,18.58
2022-10-31T10:45:34.177Z,26.77
2022-10-31T10:48:09.102Z,28.08
2022-10-31T10:50:37.862Z,27.42
2022-10-31T10:53:32.511Z,30.60
2022-10-31T10:56:12.473Z,28.60
2022-10-31T10:58:39.911Z,24.27
2022-10-31T11:01:11.417Z,26.30
2022-10-31T11:03:37.915Z,27.70
2022-10-31T11:06:04.343Z,20.55
2022-10-31T11:08:34.965Z,24.17
2022-10-31T11:11:03.176Z,28.17
2022-10-31T11:13:30.604Z,20.05
2022-10-31T11:15:59.512Z,24.92
2022-10-31T16:47:10.511Z,39.38
2022-10-31T16:49:36.768Z,40.65
2022-10-31T16:52:03.022Z,41.67
2022-10-31T16:54:32.556Z,40.03
2022-10-31T16:56:59.831Z,35.45
2022-10-31T16:59:27.670Z,42.38
2022-10-31T17:01:55.118Z,32.45
2022-10-31T17:04:21.939Z,35.83
2022-10-31T17:06:48.221Z,43.40
2022-10-31T17:09:14.490Z,39.45
2022-10-31T17:11:49.530Z,29.65
2022-10-31T17:14:16.309Z,40.20
2022-10-31T17:16:42.594Z,29.98
2022-10-31T17:19:10.657Z,34.05
2022-10-31T17:21:37.449Z,40.58
2022-10-31T17:24:03.959Z,33.35
2022-10-31T17:26:30.316Z,47.88
2022-10-31T17:28:56.904Z,37.80
2022-10-31T17:31:26.998Z,36.08
2022-10-31T17:33:57.317Z,36.40
2022-10-31T17:36:27.994Z,35.43
2022-10-31T17:38:54.487Z,39.63
2022-10-31T17:41:21.003Z,41.28
2022-10-31T17:43:47.378Z,36.20
2022-10-31T17:46:13.778Z,36.00
2022-10-31T17:48:40.253Z,33.05
2022-10-31T17:51:07.039Z,37.72
2022-10-31T17:53:34.470Z,39.95
2022-10-31T17:56:05.096Z,39.08
2022-10-31T17:58:31.872Z,32.65
2022-10-31T18:00:58.526Z,37.92
2022-10-31T18:03:25.256Z,37.40
2022-10-31T18:05:52.554Z,30.65
2022-10-31T18:08:18.862Z,41.35
2022-10-31T18:10:45.265Z,36.92
2022-10-31T18:13:11.529Z,35.15
2022-10-31T18:15:40.563Z,39.13
2022-10-31T18:18:07.408Z,34.58
2022-10-31T18:20:33.833Z,35.90
2022-10-31T18:23:00.142Z,37.70
2022-10-31T18:25:26.543Z,35.30
2022-10-31T18:27:52.823Z,30.92
2022-10-31T18:30:19.131Z,32.08
2022-10-31T18:32:45.426Z,37.03
2022-10-31T18:35:11.709Z,36.28
2022-10-31T18:37:38.024Z,38.40
2022-10-31T18:40:04.454Z,37.88
2022-10-31T18:42:30.797Z,31.75
2022-10-31T18:45:00.199Z,41.30
2022-10-31T18:47:33.029Z,35.65
2022-10-31T18:49:59.296Z,32.25
2022-10-31T18:52:25.598Z,31.63
2022-10-31T18:54:51.914Z,31.30
2022-10-31T18:57:18.240Z,32.30
2022-10-31T18:59:44.507Z,32.92
2022-10-31T19:02:15.051Z,32.33
2022-10-31T19:04:41.588Z,33.15
2022-10-31T19:07:07.932Z,34.17
2022-10-31T19:09:34.450Z,34.28
2022-10-31T19:12:00.991Z,35.05
2022-10-31T19:14:27.276Z,30.00
2022-10-31T19:16:54.470Z,35.63
2022-10-31T19:19:21.908Z,31.80
2022-10-31T19:21:48.211Z,40.03
2022-10-31T19:24:14.481Z,32.22
2022-10-31T19:26:40.761Z,28.70
2022-10-31T19:29:07.047Z,33.72
2022-10-31T19:31:34.615Z,34.40
2022-10-31T19:34:00.942Z,31.17
2022-10-31T19:36:27.964Z,29.65
2022-10-31T19:38:54.248Z,29.17
2022-10-31T19:41:22.081Z,35.28
2022-10-31T19:43:48.597Z,28.77
2022-10-31T19:46:22.909Z,25.15
2022-10-31T19:49:01.244Z,25.98
2022-10-31T19:51:28.222Z,26.05
2022-10-31T19:53:54.574Z,23.85
2022-10-31T19:56:24.140Z,31.15
2022-10-31T19:58:50.801Z,28.25
2022-10-31T20:01:18.136Z,22.30
2022-10-31T20:03:45.082Z,24.27
2022-10-31T20:06:15.936Z,24.60
2022-10-31T20:08:42.205Z,24.90
2022-10-31T20:11:08.468Z,20.67
2022-10-31T20:13:34.770Z,28.40
2022-10-31T20:16:03.224Z,21.25
2022-10-31T20:18:29.993Z,20.65
2022-10-31T20:21:07.218Z,19.40
2022-10-31T20:23:34.096Z,26.50
2022-10-31T20:26:00.820Z,20.80
2022-10-31T20:28:27.438Z,17.30
2022-10-31T20:30:53.786Z,15.65
2022-10-31T20:33:20.100Z,19.27
2022-10-31T20:35:46.430Z,17.00
2022-10-31T20:38:13.000Z,17.90
2022-10-31T20:40:39.257Z,15.13
2022-10-31T20:43:05.639Z,12.02
2022-10-31T20:45:32.422Z,13.98
2022-10-31T20:47:59.482Z,17.80
2022-10-31T20:50:26.231Z,18.92
2022-10-31T20:52:52.610Z,15.55
2022-10-31T20:55:18.899Z,17.08
2022-10-31T20:57:45.220Z,18.55
2022-10-31T21:00:11.917Z,14.30
2022-10-31T21:02:43.016Z,13.82
2022-10-31T21:05:13.088Z,14.98
2022-10-31T21:07:39.823Z,14.35
2022-10-31T21:10:15.009Z,8.82
2022-10-31T21:12:44.850Z,15.82
2022-10-31T21:15:12.114Z,14.90
2022-10-31T21:17:38.479Z,13.40
2022-10-31T21:20:06.677Z,16.90
2022-10-31T21:22:32.962Z,11.15
2022-10-31T21:24:59.366Z,13.60
2022-10-31T21:27:26.039Z,13.95
2022-10-31T21:29:52.420Z,9.55
2022-10-31T21:32:18.674Z,11.23
2022-10-31T21:34:44.929Z,17.67
2022-10-31T21:37:11.205Z,10.80
2022-10-31T21:39:38.497Z,12.85
2022-10-31T21:42:04.853Z,12.95
2022-10-31T21:44:31.104Z,11.45
2022-10-31T21:46:57.398Z,19.48
2022-10-31T21:49:23.712Z,11.18
2022-10-31T21:51:50.135Z,16.15
2022-10-31T21:54:28.637Z,11.55
2022-10-31T21:56:55.529Z,15.50
2022-10-31T21:59:22.032Z,12.07
2022-10-31T22:01:48.618Z,12.52
2022-10-31T22:04:15.320Z,18.50
2022-10-31T22:06:41.920Z,15.15
2022-10-31T22:09:08.804Z,13.32
2022-10-31T22:11:35.459Z,10.32
2022-10-31T22:14:02.158Z,14.90
2022-10-31T22:16:29.210Z,10.52
2022-10-31T22:18:57.524Z,10.45
2022-10-31T22:21:24.858Z,12.77
2022-10-31T22:23:53.499Z,13.50
2022-10-31T22:26:20.140Z,10.30
2022-10-31T22:28:47.509Z,14.88
2022-10-31T22:31:16.275Z,10.38
2022-10-31T22:33:42.997Z,12.32
2022-10-31T22:36:10.455Z,13.07
2022-10-31T22:38:40.673Z,12.00
2022-10-31T22:41:07.927Z,9.02
2022-10-31T22:43:35.483Z,14.20
2022-10-31T22:46:04.908Z,12.73
2022-10-31T22:48:34.388Z,8.07
2022-10-31T22:51:07.498Z,15.82
2022-10-31T22:53:34.871Z,13.40
2022-10-31T22:56:01.524Z,8.52
2022-10-31T22:58:31.088Z,8.98
2022-10-31T23:00:57.455Z,9.45
2022-10-31T23:03:25.412Z,13.00
2022-10-31T23:06:01.143Z,13.95
2022-10-31T23:08:30.246Z,7.97
2022-10-31T23:10:56.771Z,12.63
2022-10-31T23:13:41.864Z,9.82
2022-10-31T23:16:08.907Z,8.60
2022-10-31T23:18:50.748Z,16.60
2022-10-31T23:21:37.498Z,10.38
2022-10-31T23:24:03.927Z,12.57
2022-10-31T23:26:48.926Z,11.63
2022-10-31T23:29:15.221Z,13.02
2022-10-31T23:31:41.537Z,13.15
2022-10-31T23:34:07.873Z,11.52
2022-10-31T23:36:34.219Z,18.98
2022-10-31T23:39:00.494Z,12.48
2022-10-31T23:41:27.088Z,9.10
2022-10-31T23:43:53.363Z,16.38
2022-10-31T23:46:19.653Z,7.82
2022-10-31T23:48:48.137Z,15.02
2022-10-31T23:51:15.029Z,15.70
2022-10-31T23:53:43.607Z,8.48
2022-10-31T23:56:09.913Z,13.48
2022-10-31T23:58:36.331Z,13.90
